createdAt,value
2023-05-14T00:00:13.653Z,90.75
2023-05-14T00:01:13.830Z,90.64
2023-05-14T00:02:13.701Z,90.75
2023-05-14T00:03:13.762Z,91.66
2023-05-14T00:04:13.770Z,86.51
2023-05-14T00:05:13.647Z,88.55
2023-05-14T00:06:13.591Z,87.43
2023-05-14T00:07:13.604Z,86.82
2023-05-14T00:08:13.670Z,88.45
2023-05-14T00:09:13.562Z,90.69
2023-05-14T00:10:13.552Z,91.91
2023-05-14T00:11:13.630Z,88.65
2023-05-14T00:12:13.536Z,87.23
2023-05-14T00:13:13.512Z,87.02
2023-05-14T00:14:13.526Z,88.69
2023-05-14T00:15:13.542Z,91.35
2023-05-14T00:16:13.577Z,92.22
2023-05-14T00:17:13.513Z,91.91
2023-05-14T00:18:13.518Z,91.61
2023-05-14T00:19:13.664Z,91.03
2023-05-14T00:20:13.472Z,88.79
2023-05-14T00:21:13.463Z,90.42
2023-05-14T00:22:13.468Z,92.67
2023-05-14T00:23:13.452Z,89.81
2023-05-14T00:24:13.444Z,90.32
2023-05-14T00:25:13.450Z,90.22
2023-05-14T00:26:13.395Z,90.73
2023-05-14T00:27:13.369Z,90.83
2023-05-14T00:28:13.384Z,92.26
2023-05-14T00:29:13.438Z,90.63
2023-05-14T00:30:13.388Z,89.92
2023-05-14T00:31:13.460Z,89.81
2023-05-14T00:32:13.319Z,91.14
2023-05-14T00:33:13.344Z,91.65
2023-05-14T00:34:13.303Z,95.52
2023-05-14T00:35:13.330Z,93.59
2023-05-14T00:36:13.277Z,95.73
2023-05-14T00:37:13.336Z,93.18
2023-05-14T00:38:13.273Z,91.75
2023-05-14T00:39:13.285Z,93.89
2023-05-14T00:40:13.319Z,89.92
2023-05-14T00:41:13.278Z,89.86
2023-05-14T00:42:13.266Z,92.26
2023-05-14T00:43:13.257Z,90.67
2023-05-14T00:44:13.257Z,91.28
2023-05-14T00:45:13.222Z,90.16
2023-05-14T00:46:13.243Z,89.75
2023-05-14T00:47:13.196Z,89.96
2023-05-14T00:48:13.211Z,89.86
2023-05-14T00:49:13.186Z,91.69
2023-05-14T00:50:13.183Z,89.34
2023-05-14T00:51:13.147Z,90.06
2023-05-14T00:52:13.174Z,89.45
2023-05-14T00:53:13.106Z,92.41
2023-05-14T00:54:13.125Z,94.04
2023-05-14T00:55:13.095Z,94.75
2023-05-14T00:56:13.153Z,92.41
2023-05-14T00:57:13.055Z,92.41
2023-05-14T00:58:13.180Z,88.73
2023-05-14T00:59:13.087Z,91.39
2023-05-14T01:00:13.021Z,93.73
2023-05-14T01:01:13.079Z,92.81
2023-05-14T01:02:13.044Z,93.12
2023-05-14T01:03:13.107Z,91.08
2023-05-14T01:04:13.018Z,95.67
2023-05-14T01:05:12.993Z,91.69
2023-05-14T01:06:12.948Z,90.67
2023-05-14T01:07:13.026Z,89.79
2023-05-14T01:08:12.958Z,92.76
2023-05-14T01:09:13.067Z,91.94
2023-05-14T01:10:12.937Z,94.85
2023-05-14T01:11:12.988Z,93.26
2023-05-14T01:12:13.030Z,93.26
2023-05-14T01:13:12.940Z,91.22
2023-05-14T01:14:12.935Z,93.16
2023-05-14T01:15:12.877Z,92.86
2023-05-14T01:16:12.895Z,88.98
2023-05-14T01:17:12.930Z,90.41
2023-05-14T01:18:12.962Z,91.43
2023-05-14T01:19:12.940Z,92.24
2023-05-14T01:20:12.840Z,92.14
2023-05-14T01:21:12.823Z,90.61
2023-05-14T01:22:12.848Z,91.22
2023-05-14T01:23:12.834Z,90.92
2023-05-14T01:24:12.794Z,89.84
2023-05-14T01:25:12.796Z,90.04
2023-05-14T01:26:12.770Z,90.25
2023-05-14T01:27:12.767Z,92.80
2023-05-14T01:28:12.765Z,92.90
2023-05-14T01:29:12.720Z,91.47
2023-05-14T01:30:12.775Z,94.23
2023-05-14T01:31:12.755Z,92.90
2023-05-14T01:32:12.739Z,90.35
2023-05-14T01:33:12.695Z,91.06
2023-05-14T01:34:12.697Z,91.16
2023-05-14T01:35:12.696Z,90.86
2023-05-14T01:36:12.657Z,92.59
2023-05-14T01:37:12.680Z,90.96
2023-05-14T01:38:12.613Z,90.80
2023-05-14T01:39:12.618Z,92.13
2023-05-14T01:40:12.612Z,92.02
2023-05-14T01:41:12.613Z,94.07
2023-05-14T01:42:12.595Z,91.20
2023-05-14T01:43:12.637Z,92.33
2023-05-14T01:44:12.574Z,93.05
2023-05-14T01:45:12.539Z,92.74
2023-05-14T01:46:12.606Z,92.64
2023-05-14T01:47:12.589Z,91.61
2023-05-14T01:48:12.533Z,92.43
2023-05-14T01:49:12.566Z,96.31
2023-05-14T01:50:12.649Z,94.89
2023-05-14T01:51:12.536Z,93.86
2023-05-14T01:52:12.498Z,92.43
2023-05-14T01:53:12.466Z,92.54
2023-05-14T01:54:12.495Z,92.54
2023-05-14T01:55:12.438Z,93.15
2023-05-14T01:56:12.436Z,96.01
2023-05-14T01:57:12.481Z,91.92
2023-05-14T01:58:12.448Z,90.80
2023-05-14T01:59:12.399Z,92.64
2023-05-14T02:00:12.395Z,93.25
2023-05-14T02:01:12.490Z,92.02
2023-05-14T02:02:12.346Z,91.72
2023-05-14T02:03:12.460Z,90.64
2023-05-14T02:04:12.398Z,91.25
2023-05-14T02:05:12.348Z,92.58
2023-05-14T02:06:12.338Z,93.19
2023-05-14T02:07:12.357Z,94.89
2023-05-14T02:08:12.290Z,95.60
2023-05-14T02:09:12.349Z,92.02
2023-05-14T02:10:12.341Z,95.39
2023-05-14T02:11:12.343Z,93.86
2023-05-14T02:12:12.267Z,96.42
2023-05-14T02:13:12.420Z,94.27
2023-05-14T02:14:12.253Z,95.50
2023-05-14T02:15:12.264Z,92.78
2023-05-14T02:16:12.274Z,92.99
2023-05-14T02:17:12.220Z,92.78
2023-05-14T02:18:12.279Z,92.58
2023-05-14T02:19:12.298Z,92.47
2023-05-14T02:20:12.243Z,91.66
2023-05-14T02:21:12.222Z,93.29
2023-05-14T02:22:12.161Z,92.37
2023-05-14T02:23:12.186Z,92.17
2023-05-14T02:24:12.153Z,95.13
2023-05-14T02:25:12.133Z,95.13
2023-05-14T02:26:12.108Z,95.75
2023-05-14T02:27:12.123Z,94.62
2023-05-14T02:28:12.116Z,95.54
2023-05-14T02:29:12.081Z,96.97
2023-05-14T02:30:12.092Z,93.60
2023-05-14T02:31:12.090Z,96.05
2023-05-14T02:32:12.188Z,95.34
2023-05-14T02:33:12.168Z,93.33
2023-05-14T02:34:12.014Z,96.20
2023-05-14T02:35:12.035Z,96.81
2023-05-14T02:36:11.991Z,94.46
2023-05-14T02:37:12.040Z,94.67
2023-05-14T02:38:12.149Z,94.36
2023-05-14T02:39:12.096Z,97.53
2023-05-14T02:40:11.993Z,96.51
2023-05-14T02:41:11.977Z,95.18
2023-05-14T02:42:11.977Z,92.21
2023-05-14T02:43:11.905Z,93.44
2023-05-14T02:44:11.915Z,93.24
2023-05-14T02:45:11.979Z,94.36
2023-05-14T02:46:12.002Z,92.72
2023-05-14T02:47:12.098Z,93.44
2023-05-14T02:48:12.030Z,92.66
2023-05-14T02:49:11.921Z,94.51
2023-05-14T02:50:11.872Z,95.79
2023-05-14T02:51:11.861Z,95.79
2023-05-14T02:52:11.920Z,93.18
2023-05-14T02:53:11.798Z,92.05
2023-05-14T02:54:11.838Z,95.22
2023-05-14T02:55:11.807Z,94.30
2023-05-14T02:56:11.849Z,93.07
2023-05-14T02:57:11.798Z,94.51
2023-05-14T02:58:11.760Z,92.25
2023-05-14T02:59:11.796Z,93.18
2023-05-14T03:00:11.764Z,94.10
2023-05-14T03:01:11.743Z,92.97
2023-05-14T03:02:11.748Z,93.89
2023-05-14T03:03:11.773Z,93.79
2023-05-14T03:04:11.658Z,92.87
2023-05-14T03:05:11.696Z,93.48
2023-05-14T03:06:11.667Z,93.69
2023-05-14T03:07:11.644Z,95.12
2023-05-14T03:08:11.581Z,95.22
2023-05-14T03:09:11.631Z,93.59
2023-05-14T03:10:11.677Z,93.59
2023-05-14T03:11:11.599Z,95.22
2023-05-14T03:12:11.669Z,96.45
2023-05-14T03:13:11.618Z,96.34
2023-05-14T03:14:11.669Z,95.94
2023-05-14T03:15:11.718Z,96.25
2023-05-14T03:16:11.601Z,94.30
2023-05-14T03:17:11.763Z,97.06
2023-05-14T03:18:11.512Z,94.51
2023-05-14T03:19:12.090Z,93.48
2023-05-14T03:20:11.590Z,96.55
2023-05-14T03:21:11.570Z,97.78
2023-05-14T03:22:11.563Z,96.75
2023-05-14T03:23:11.625Z,93.28
2023-05-14T03:24:11.420Z,93.73
2023-05-14T03:25:11.448Z,93.93
2023-05-14T03:26:11.456Z,94.14
2023-05-14T03:27:11.749Z,92.81
2023-05-14T03:28:11.483Z,93.22
2023-05-14T03:29:11.719Z,94.45
2023-05-14T03:30:11.370Z,95.26
2023-05-14T03:31:11.425Z,96.80
2023-05-14T03:32:11.432Z,93.22
2023-05-14T03:33:11.415Z,93.22
2023-05-14T03:34:11.403Z,92.71
2023-05-14T03:35:11.449Z,94.34
2023-05-14T03:36:11.306Z,94.34
2023-05-14T03:37:11.466Z,94.14
2023-05-14T03:38:11.318Z,94.85
2023-05-14T03:39:11.443Z,93.52
2023-05-14T03:40:11.380Z,95.57
2023-05-14T03:41:11.270Z,95.37
2023-05-14T03:42:11.227Z,96.08
2023-05-14T03:43:11.451Z,96.39
2023-05-14T03:44:11.260Z,94.14
2023-05-14T03:45:11.428Z,94.45
2023-05-14T03:46:11.292Z,93.22
2023-05-14T03:47:11.395Z,93.73
2023-05-14T03:48:11.463Z,93.63
2023-05-14T03:49:11.397Z,95.78
2023-05-14T03:50:11.196Z,93.63
2023-05-14T03:51:11.193Z,93.73
2023-05-14T03:52:11.221Z,94.24
2023-05-14T03:53:11.188Z,95.78
2023-05-14T03:54:11.270Z,94.55
2023-05-14T03:55:11.052Z,95.67
2023-05-14T03:56:11.107Z,94.14
2023-05-14T03:57:11.180Z,96.49
2023-05-14T03:58:11.129Z,97.31
2023-05-14T03:59:11.142Z,95.06
2023-05-14T04:00:11.102Z,93.63
2023-05-14T04:01:17.115Z,96.49
2023-05-14T04:02:11.105Z,94.65
2023-05-14T04:03:11.303Z,92.71
2023-05-14T04:04:11.118Z,93.52
2023-05-14T04:05:11.124Z,92.91
2023-05-14T04:06:11.110Z,95.67
2023-05-14T04:07:11.014Z,96.91
2023-05-14T04:08:10.917Z,94.55
2023-05-14T04:09:10.960Z,95.26
2023-05-14T04:10:10.947Z,93.32
2023-05-14T04:11:10.985Z,93.52
2023-05-14T04:12:10.923Z,94.96
2023-05-14T04:13:10.856Z,95.37
2023-05-14T04:14:10.863Z,91.99
2023-05-14T04:15:10.975Z,92.71
2023-05-14T04:16:10.911Z,92.40
2023-05-14T04:17:10.856Z,91.89
2023-05-14T04:18:10.935Z,92.50
2023-05-14T04:19:10.926Z,95.78
2023-05-14T04:20:10.790Z,94.04
2023-05-14T04:21:10.806Z,93.01
2023-05-14T04:22:10.813Z,93.84
2023-05-14T04:23:10.788Z,94.75
2023-05-14T04:24:11.235Z,92.60
2023-05-14T04:25:10.719Z,93.52
2023-05-14T04:26:10.737Z,93.63
2023-05-14T04:27:10.745Z,93.84
2023-05-14T04:28:10.797Z,91.69
2023-05-14T04:29:10.730Z,94.45
2023-05-14T04:30:10.737Z,93.52
2023-05-14T04:31:10.683Z,94.14
2023-05-14T04:32:10.676Z,92.91
2023-05-14T04:33:10.735Z,94.96
2023-05-14T04:34:10.652Z,93.43
2023-05-14T04:35:10.683Z,93.43
2023-05-14T04:36:10.657Z,91.58
2023-05-14T04:37:10.664Z,93.93
2023-05-14T04:38:10.586Z,94.04
2023-05-14T04:39:10.581Z,93.93
2023-05-14T04:40:10.702Z,93.43
2023-05-14T04:41:10.580Z,95.26
2023-05-14T04:42:10.614Z,93.43
2023-05-14T04:43:10.589Z,94.65
2023-05-14T04:44:10.536Z,94.65
2023-05-14T04:45:10.602Z,94.24
2023-05-14T04:46:10.572Z,96.59
2023-05-14T04:47:10.545Z,96.08
2023-05-14T04:48:10.565Z,94.85
2023-05-14T04:49:10.459Z,95.84
2023-05-14T04:50:10.525Z,95.73
2023-05-14T04:51:10.485Z,95.53
2023-05-14T04:52:10.454Z,92.77
2023-05-14T04:53:10.486Z,92.66
2023-05-14T04:54:10.513Z,93.38
2023-05-14T04:55:10.453Z,91.85
2023-05-14T04:56:10.507Z,93.79
2023-05-14T04:57:10.415Z,96.55
2023-05-14T04:58:10.385Z,93.99
2023-05-14T04:59:10.490Z,93.79
2023-05-14T05:00:10.392Z,93.38
2023-05-14T05:01:10.396Z,92.15
2023-05-14T05:02:10.355Z,91.54
2023-05-14T05:03:10.378Z,94.36
2023-05-14T05:04:10.442Z,91.91
2023-05-14T05:05:10.332Z,93.85
2023-05-14T05:06:10.283Z,94.77
2023-05-14T05:07:10.281Z,93.13
2023-05-14T05:08:10.338Z,92.62
2023-05-14T05:09:10.342Z,93.65
2023-05-14T05:10:10.265Z,93.65
2023-05-14T05:11:10.282Z,92.47
2023-05-14T05:12:10.298Z,89.45
2023-05-14T05:13:10.314Z,92.58
2023-05-14T05:14:10.222Z,92.47
2023-05-14T05:15:10.378Z,92.07
2023-05-14T05:16:10.230Z,94.82
2023-05-14T05:17:10.220Z,90.12
2023-05-14T05:18:10.216Z,93.40
2023-05-14T05:19:10.301Z,93.19
2023-05-14T05:20:10.182Z,92.37
2023-05-14T05:21:10.165Z,92.58
2023-05-14T05:22:10.132Z,92.47
2023-05-14T05:23:10.129Z,90.64
2023-05-14T05:24:10.259Z,89.00
2023-05-14T05:25:10.158Z,90.02
2023-05-14T05:26:10.109Z,89.92
2023-05-14T05:27:10.153Z,91.31
2023-05-14T05:28:10.069Z,89.11
2023-05-14T05:29:10.168Z,89.51
2023-05-14T05:30:10.105Z,89.41
2023-05-14T05:31:10.059Z,91.25
2023-05-14T05:32:10.771Z,93.25
2023-05-14T05:33:10.041Z,91.31
2023-05-14T05:34:10.021Z,90.29
2023-05-14T05:35:10.013Z,91.41
2023-05-14T05:36:10.006Z,92.43
2023-05-14T05:37:10.030Z,91.61
2023-05-14T05:38:09.985Z,89.58
2023-05-14T05:39:09.961Z,91.11
2023-05-14T05:40:09.937Z,91.31
2023-05-14T05:41:09.969Z,92.80
2023-05-14T05:42:09.920Z,89.94
2023-05-14T05:43:09.881Z,90.14
2023-05-14T05:44:09.897Z,90.35
2023-05-14T05:45:09.887Z,90.66
2023-05-14T05:46:09.948Z,90.35
2023-05-14T05:47:09.902Z,89.32
2023-05-14T05:48:09.848Z,88.17
2023-05-14T05:49:09.829Z,92.14
2023-05-14T05:50:09.967Z,89.18
2023-05-14T05:51:09.866Z,91.33
2023-05-14T05:52:09.825Z,89.25
2023-05-14T05:53:09.805Z,86.29
2023-05-14T05:54:09.777Z,86.80
2023-05-14T05:55:09.803Z,89.75
2023-05-14T05:56:09.764Z,90.22
2023-05-14T05:57:09.799Z,88.79
2023-05-14T05:58:09.774Z,86.76
2023-05-14T05:59:09.730Z,87.73
2023-05-14T06:00:09.717Z,90.38
2023-05-14T06:01:09.739Z,85.28
2023-05-14T06:02:09.733Z,87.18
2023-05-14T06:03:09.815Z,86.57
2023-05-14T06:04:09.785Z,86.98
2023-05-14T06:05:09.746Z,85.05
2023-05-14T06:06:09.741Z,88.57
2023-05-14T06:07:09.627Z,86.02
2023-05-14T06:08:09.649Z,83.48
2023-05-14T06:09:09.671Z,86.63
2023-05-14T06:10:09.667Z,84.09
2023-05-14T06:11:09.642Z,86.53
2023-05-14T06:12:15.649Z,83.68
2023-05-14T06:13:09.578Z,87.45
2023-05-14T06:14:09.587Z,83.98
2023-05-14T06:15:09.579Z,86.22
2023-05-14T06:16:09.606Z,86.22
2023-05-14T06:17:09.576Z,84.19
2023-05-14T06:18:09.642Z,84.86
2023-05-14T06:19:09.812Z,83.44
2023-05-14T06:20:09.522Z,83.03
2023-05-14T06:21:09.571Z,84.97
2023-05-14T06:22:09.498Z,86.08
2023-05-14T06:23:09.517Z,83.64
2023-05-14T06:24:09.466Z,84.35
2023-05-14T06:25:09.476Z,85.17
2023-05-14T06:26:09.470Z,83.60
2023-05-14T06:27:09.514Z,84.21
2023-05-14T06:28:10.025Z,84.72
2023-05-14T06:29:09.409Z,84.62
2023-05-14T06:30:09.430Z,82.48
2023-05-14T06:31:09.498Z,83.20
2023-05-14T06:32:09.423Z,85.03
2023-05-14T06:33:09.457Z,84.88
2023-05-14T06:34:09.469Z,82.65
2023-05-14T06:35:09.343Z,83.67
2023-05-14T06:36:09.338Z,86.21
2023-05-14T06:37:09.328Z,83.87
2023-05-14T06:38:09.328Z,81.39
2023-05-14T06:39:09.316Z,83.83
2023-05-14T06:40:09.385Z,85.76
2023-05-14T06:41:09.313Z,85.62
2023-05-14T06:42:09.268Z,82.98
2023-05-14T06:43:09.245Z,84.60
2023-05-14T06:44:09.285Z,83.99
2023-05-14T06:45:09.262Z,82.87
2023-05-14T06:46:09.249Z,83.85
2023-05-14T06:47:09.252Z,79.38
2023-05-14T06:48:09.291Z,81.52
2023-05-14T06:49:09.221Z,82.94
2023-05-14T06:50:10.809Z,84.05
2023-05-14T06:51:09.195Z,83.85
2023-05-14T06:52:09.169Z,83.61
2023-05-14T06:53:09.161Z,81.18
2023-05-14T06:54:09.167Z,82.50
2023-05-14T06:55:09.121Z,80.16
2023-05-14T06:56:09.126Z,83.00
2023-05-14T06:57:09.102Z,79.72
2023-05-14T06:58:09.130Z,81.24
2023-05-14T06:59:09.106Z,77.28
2023-05-14T07:00:09.063Z,79.31
2023-05-14T07:01:09.133Z,77.99
2023-05-14T07:02:09.046Z,77.59
2023-05-14T07:03:09.085Z,78.19
2023-05-14T07:04:09.079Z,78.66
2023-05-14T07:05:09.053Z,79.17
2023-05-14T07:06:09.005Z,77.95
2023-05-14T07:07:08.990Z,78.46
2023-05-14T07:08:08.998Z,76.64
2023-05-14T07:09:08.968Z,79.47
2023-05-14T07:10:09.000Z,76.74
2023-05-14T07:11:08.975Z,78.53
2023-05-14T07:12:08.940Z,78.42
2023-05-14T07:13:08.927Z,76.67
2023-05-14T07:14:08.937Z,76.06
2023-05-14T07:15:08.939Z,77.58
2023-05-14T07:16:08.921Z,77.34
2023-05-14T07:17:08.992Z,76.03
2023-05-14T07:18:08.909Z,78.15
2023-05-14T07:19:08.961Z,80.47
2023-05-14T07:20:08.894Z,78.15
2023-05-14T07:21:08.888Z,77.64
2023-05-14T07:22:08.893Z,78.72
2023-05-14T07:23:08.878Z,76.59
2023-05-14T07:24:08.799Z,76.09
2023-05-14T07:25:08.866Z,77.00
2023-05-14T07:26:08.814Z,74.98
2023-05-14T07:27:08.777Z,75.18
2023-05-14T07:28:08.808Z,78.48
2023-05-14T07:29:08.794Z,73.72
2023-05-14T07:30:08.812Z,74.13
2023-05-14T07:31:09.057Z,76.35
2023-05-14T07:32:08.836Z,74.19
2023-05-14T07:33:08.756Z,75.51
2023-05-14T07:34:08.791Z,75.61
2023-05-14T07:35:08.710Z,76.28
2023-05-14T07:36:08.715Z,73.86
2023-05-14T07:37:08.703Z,73.66
2023-05-14T07:38:08.693Z,74.87
2023-05-14T07:39:08.685Z,71.03
2023-05-14T07:40:08.663Z,74.13
2023-05-14T07:41:08.702Z,73.11
2023-05-14T07:42:08.711Z,75.13
2023-05-14T07:43:08.648Z,72.71
2023-05-14T07:44:08.676Z,71.10
2023-05-14T07:45:08.683Z,73.89
2023-05-14T07:46:08.619Z,73.18
2023-05-14T07:47:08.674Z,72.88
2023-05-14T07:48:08.782Z,72.88
2023-05-14T07:49:08.587Z,74.26
2023-05-14T07:50:08.542Z,71.03
2023-05-14T07:51:08.569Z,68.71
2023-05-14T07:52:08.579Z,68.91
2023-05-14T07:53:08.620Z,69.79
2023-05-14T07:54:08.716Z,72.71
2023-05-14T07:55:08.524Z,71.50
2023-05-14T07:56:08.490Z,72.20
2023-05-14T07:57:08.478Z,72.11
2023-05-14T07:58:08.455Z,70.36
2023-05-14T07:59:08.472Z,70.15
2023-05-14T08:00:08.600Z,66.93
2023-05-14T08:01:08.415Z,67.30
2023-05-14T08:02:08.530Z,66.70
2023-05-14T08:03:08.546Z,69.82
2023-05-14T08:04:08.510Z,68.51
2023-05-14T08:05:08.382Z,68.28
2023-05-14T08:06:08.345Z,69.49
2023-05-14T08:07:08.445Z,69.29
2023-05-14T08:08:08.384Z,69.99
2023-05-14T08:09:08.456Z,65.66
2023-05-14T08:10:08.342Z,67.94
2023-05-14T08:11:08.372Z,67.54
2023-05-14T08:12:08.301Z,70.36
2023-05-14T08:13:08.351Z,68.62
2023-05-14T08:14:08.291Z,71.53
2023-05-14T08:15:08.350Z,67.21
2023-05-14T08:16:08.290Z,66.77
2023-05-14T08:17:08.413Z,68.68
2023-05-14T08:18:08.358Z,63.65
2023-05-14T08:19:08.327Z,65.44
2023-05-14T08:20:08.749Z,65.84
2023-05-14T08:21:08.285Z,64.73
2023-05-14T08:22:08.210Z,65.91
2023-05-14T08:23:08.451Z,66.11
2023-05-14T08:24:08.152Z,67.31
2023-05-14T08:25:08.172Z,69.22
2023-05-14T08:26:08.166Z,68.25
2023-05-14T08:27:08.138Z,66.64
2023-05-14T08:28:08.144Z,65.91
2023-05-14T08:29:10.484Z,66.51
2023-05-14T08:30:08.120Z,66.58
2023-05-14T08:31:08.183Z,62.16
2023-05-14T08:32:19.343Z,63.87
2023-05-14T08:33:08.149Z,62.73
2023-05-14T08:34:08.063Z,63.64
2023-05-14T08:35:08.074Z,61.63
2023-05-14T08:36:08.055Z,64.64
2023-05-14T08:37:08.056Z,62.73
2023-05-14T08:38:08.076Z,62.76
2023-05-14T08:39:08.029Z,64.84
2023-05-14T08:40:08.018Z,62.50
2023-05-14T08:41:08.011Z,60.82
2023-05-14T08:42:08.008Z,64.47
2023-05-14T08:43:08.014Z,64.07
2023-05-14T08:44:07.969Z,60.75
2023-05-14T08:45:07.994Z,64.94
2023-05-14T08:46:07.979Z,60.12
2023-05-14T08:47:08.006Z,63.33
2023-05-14T08:48:07.952Z,62.70
2023-05-14T08:49:07.951Z,63.67
2023-05-14T08:50:07.932Z,61.64
2023-05-14T08:51:07.895Z,59.70
2023-05-14T08:52:07.886Z,62.41
2023-05-14T08:53:07.881Z,61.81
2023-05-14T08:54:07.932Z,59.83
2023-05-14T08:55:07.931Z,61.36
2023-05-14T08:56:07.843Z,59.79
2023-05-14T08:57:07.855Z,62.50
2023-05-14T08:58:07.805Z,60.82
2023-05-14T08:59:07.834Z,63.43
2023-05-14T09:00:07.820Z,69.06
2023-05-14T09:01:08.059Z,60.85
2023-05-14T09:02:07.932Z,63.56
2023-05-14T09:03:07.958Z,63.87
2023-05-14T09:04:07.844Z,66.31
2023-05-14T09:05:07.766Z,62.59
2023-05-14T09:06:07.759Z,64.47
2023-05-14T09:07:07.725Z,62.76
2023-05-14T09:08:07.725Z,62.66
2023-05-14T09:09:07.740Z,65.07
2023-05-14T09:10:07.690Z,64.57
2023-05-14T09:11:07.675Z,64.67
2023-05-14T09:12:07.691Z,63.09
2023-05-14T09:13:07.709Z,62.82
2023-05-14T09:14:07.746Z,64.43
2023-05-14T09:15:07.650Z,67.47
2023-05-14T09:16:07.721Z,65.87
2023-05-14T09:17:07.655Z,67.18
2023-05-14T09:18:07.722Z,62.98
2023-05-14T09:19:07.737Z,63.99
2023-05-14T09:20:07.593Z,67.71
2023-05-14T09:21:07.588Z,65.90
2023-05-14T09:22:07.590Z,63.89
2023-05-14T09:23:07.611Z,66.97
2023-05-14T09:24:07.530Z,63.85
2023-05-14T09:25:07.529Z,62.45
2023-05-14T09:26:07.528Z,61.85
2023-05-14T09:27:07.500Z,60.71
2023-05-14T09:28:07.499Z,64.43
2023-05-14T09:29:07.496Z,63.22
2023-05-14T09:30:07.533Z,64.53
2023-05-14T09:31:07.487Z,65.44
2023-05-14T09:32:07.614Z,66.24
2023-05-14T09:33:07.554Z,64.93
2023-05-14T09:34:07.456Z,66.44
2023-05-14T09:35:07.480Z,65.33
2023-05-14T09:36:07.422Z,65.33
2023-05-14T09:37:07.400Z,63.32
2023-05-14T09:38:07.411Z,66.84
2023-05-14T09:39:07.367Z,63.42
2023-05-14T09:40:07.413Z,66.44
2023-05-14T09:41:07.382Z,63.22
2023-05-14T09:42:07.334Z,63.22
2023-05-14T09:43:07.346Z,59.10
2023-05-14T09:44:07.342Z,61.21
2023-05-14T09:45:07.352Z,60.81
2023-05-14T09:46:07.314Z,62.55
2023-05-14T09:47:07.330Z,62.72
2023-05-14T09:48:07.462Z,61.31
2023-05-14T09:49:07.270Z,62.92
2023-05-14T09:50:07.315Z,58.93
2023-05-14T09:51:07.258Z,60.44
2023-05-14T09:52:07.246Z,60.53
2023-05-14T09:53:07.282Z,59.94
2023-05-14T09:54:07.206Z,59.94
2023-05-14T09:55:07.198Z,64.86
2023-05-14T09:56:07.210Z,61.24
2023-05-14T09:57:07.191Z,59.43
2023-05-14T09:58:07.240Z,59.53
2023-05-14T09:59:07.165Z,62.18
2023-05-14T10:00:07.147Z,58.95
2023-05-14T10:01:07.241Z,60.57
2023-05-14T10:02:07.129Z,58.95
2023-05-14T10:03:07.244Z,59.36
2023-05-14T10:04:07.161Z,58.15
2023-05-14T10:05:07.114Z,63.18
2023-05-14T10:06:07.089Z,59.89
2023-05-14T10:07:07.080Z,61.80
2023-05-14T10:08:07.085Z,62.88
2023-05-14T10:09:07.078Z,59.66
2023-05-14T10:10:07.054Z,60.77
2023-05-14T10:11:07.065Z,66.80
2023-05-14T10:12:07.030Z,60.06
2023-05-14T10:13:07.027Z,61.57
2023-05-14T10:14:07.003Z,61.37
2023-05-14T10:15:07.026Z,62.78
2023-05-14T10:16:07.033Z,63.82
2023-05-14T10:17:07.094Z,57.68
2023-05-14T10:18:07.064Z,62.30
2023-05-14T10:19:07.126Z,59.48
2023-05-14T10:20:06.949Z,59.89
2023-05-14T10:21:06.960Z,58.78
2023-05-14T10:22:06.966Z,58.07
2023-05-14T10:23:06.949Z,59.28
2023-05-14T10:24:06.918Z,63.92
2023-05-14T10:25:06.892Z,62.78
2023-05-14T10:26:06.895Z,61.27
2023-05-14T10:27:06.861Z,61.77
2023-05-14T10:28:06.859Z,64.16
2023-05-14T10:29:06.896Z,60.84
2023-05-14T10:30:06.827Z,64.23
2023-05-14T10:31:06.877Z,61.21
2023-05-14T10:32:06.863Z,59.41
2023-05-14T10:33:06.941Z,58.09
2023-05-14T10:34:06.792Z,57.57
2023-05-14T10:35:06.847Z,58.07
2023-05-14T10:36:06.770Z,56.49
2023-05-14T10:37:06.762Z,62.59
2023-05-14T10:38:06.772Z,59.27
2023-05-14T10:39:06.770Z,59.88
2023-05-14T10:40:06.788Z,57.77
2023-05-14T10:41:06.746Z,62.08
2023-05-14T10:42:06.724Z,60.45
2023-05-14T10:43:06.705Z,61.86
2023-05-14T10:44:06.701Z,60.96
2023-05-14T10:45:06.685Z,60.85
2023-05-14T10:46:06.763Z,59.62
2023-05-14T10:47:06.702Z,62.53
2023-05-14T10:48:06.684Z,59.66
2023-05-14T10:49:06.628Z,55.13
2023-05-14T10:50:06.635Z,59.94
2023-05-14T10:51:06.684Z,55.52
2023-05-14T10:52:06.740Z,57.73
2023-05-14T10:53:06.700Z,58.73
2023-05-14T10:54:06.613Z,59.41
2023-05-14T10:55:06.657Z,56.30
2023-05-14T10:56:06.590Z,57.17
2023-05-14T10:57:06.551Z,58.07
2023-05-14T10:58:06.568Z,58.35
2023-05-14T10:59:06.558Z,54.82
2023-05-14T11:00:06.535Z,51.57
2023-05-14T11:01:06.548Z,51.47
2023-05-14T11:02:06.638Z,56.94
2023-05-14T11:03:06.517Z,54.29
2023-05-14T11:04:06.562Z,53.09
2023-05-14T11:05:06.544Z,52.57
2023-05-14T11:06:06.523Z,54.57
2023-05-14T11:07:06.503Z,50.74
2023-05-14T11:08:06.449Z,55.01
2023-05-14T11:09:06.462Z,50.60
2023-05-14T11:10:06.518Z,52.27
2023-05-14T11:11:06.460Z,50.57
2023-05-14T11:12:06.518Z,49.58
2023-05-14T11:13:06.480Z,47.66
2023-05-14T11:14:08.450Z,50.43
2023-05-14T11:15:06.380Z,48.34
2023-05-14T11:17:06.406Z,50.78
2023-05-14T11:18:06.368Z,49.80
2023-05-14T11:19:06.427Z,46.72
2023-05-14T11:20:06.385Z,51.17
2023-05-14T11:21:06.380Z,48.96
2023-05-14T11:22:06.345Z,47.57
2023-05-14T11:23:06.303Z,46.36
2023-05-14T11:24:06.327Z,46.16
2023-05-14T11:25:06.337Z,49.04
2023-05-14T11:26:06.340Z,48.10
2023-05-14T11:27:06.248Z,45.73
2023-05-14T11:28:06.252Z,45.75
2023-05-14T11:29:06.305Z,47.96
2023-05-14T11:30:06.241Z,47.07
2023-05-14T11:31:06.243Z,47.19
2023-05-14T11:32:06.327Z,48.71
2023-05-14T11:33:06.231Z,48.61
2023-05-14T11:34:06.224Z,51.70
2023-05-14T11:35:06.285Z,49.28
2023-05-14T11:36:06.268Z,48.86
2023-05-14T11:37:06.257Z,49.11
2023-05-14T11:38:07.936Z,45.81
2023-05-14T11:39:06.182Z,44.40
2023-05-14T11:40:06.120Z,50.16
2023-05-14T11:41:06.162Z,49.16
2023-05-14T11:42:06.205Z,44.87
2023-05-14T11:43:06.131Z,48.52
2023-05-14T11:44:07.841Z,47.50
2023-05-14T11:45:06.129Z,45.40
2023-05-14T11:46:06.147Z,46.98
2023-05-14T11:47:06.080Z,44.01
2023-05-14T11:48:06.249Z,43.24
2023-05-14T11:49:06.080Z,49.02
2023-05-14T11:50:07.991Z,47.35
2023-05-14T11:51:06.153Z,48.47
2023-05-14T11:52:06.075Z,46.60
2023-05-14T11:53:06.017Z,50.20
2023-05-14T11:54:06.038Z,47.94
2023-05-14T11:55:05.995Z,46.65
2023-05-14T11:56:07.703Z,44.92
2023-05-14T11:57:05.943Z,48.44
2023-05-14T11:58:06.005Z,45.05
2023-05-14T11:59:05.966Z,49.24
2023-05-14T12:00:05.958Z,47.95
2023-05-14T12:01:05.932Z,48.96
2023-05-14T12:02:06.116Z,46.16
2023-05-14T12:03:06.001Z,44.73
2023-05-14T12:04:06.024Z,44.81
2023-05-14T12:05:05.940Z,42.80
2023-05-14T12:06:05.970Z,47.24
2023-05-14T12:07:05.888Z,42.46
2023-05-14T12:08:05.888Z,42.36
2023-05-14T12:09:05.861Z,44.76
2023-05-14T12:10:05.826Z,45.18
2023-05-14T12:11:05.878Z,49.27
2023-05-14T12:12:05.894Z,43.44
2023-05-14T12:13:05.804Z,49.29
2023-05-14T12:14:05.841Z,45.45
2023-05-14T12:15:05.813Z,47.28
2023-05-14T12:16:05.915Z,46.62
2023-05-14T12:17:05.770Z,48.08
2023-05-14T12:18:13.668Z,50.60
2023-05-14T12:19:05.778Z,48.53
2023-05-14T12:20:05.820Z,47.24
2023-05-14T12:21:05.736Z,48.85
2023-05-14T12:22:05.725Z,51.17
2023-05-14T12:23:05.744Z,50.60
2023-05-14T12:24:05.749Z,53.89
2023-05-14T12:25:05.715Z,50.70
2023-05-14T12:26:05.696Z,48.68
2023-05-14T12:27:05.676Z,50.52
2023-05-14T12:28:05.713Z,49.76
2023-05-14T12:29:05.779Z,44.64
2023-05-14T12:30:20.486Z,45.61
2023-05-14T12:31:05.707Z,46.80
2023-05-14T12:32:05.661Z,51.00
2023-05-14T12:33:05.725Z,42.47
2023-05-14T12:34:05.672Z,46.37
2023-05-14T12:35:05.636Z,49.06
2023-05-14T12:36:20.757Z,47.19
2023-05-14T12:37:05.601Z,48.58
2023-05-14T12:38:05.619Z,51.27
2023-05-14T12:39:05.555Z,51.47
2023-05-14T12:40:05.573Z,49.78
2023-05-14T12:41:05.629Z,47.66
2023-05-14T12:42:05.521Z,47.74
2023-05-14T12:43:05.578Z,48.61
2023-05-14T12:44:05.533Z,42.13
2023-05-14T12:45:05.516Z,42.88
2023-05-14T12:46:05.465Z,42.86
2023-05-14T12:47:05.706Z,44.90
2023-05-14T12:48:05.541Z,45.87
2023-05-14T12:49:05.424Z,42.07
2023-05-14T12:50:05.477Z,40.29
2023-05-14T12:51:05.502Z,41.16
2023-05-14T12:52:25.736Z,41.93
2023-05-14T12:53:05.482Z,42.90